createdAt,value
2016-06-22T00:00:38.843Z,0
2016-06-22T00:01:39.522Z,0
2016-06-22T00:02:39.445Z,0
2016-06-22T00:03:38.237Z,0
2016-06-22T00:04:39.506Z,0
2016-06-22T00:05:40.130Z,0
2016-06-22T00:06:39.566Z,0
2016-06-22T00:07:38.365Z,0
2016-06-22T00:08:38.417Z,0
2016-06-22T00:09:39.043Z,0
2016-06-22T00:10:39.130Z,0
2016-06-22T00:11:39.076Z,0
2016-06-22T00:12:39.086Z,0
2016-06-22T00:13:38.503Z,0
2016-06-22T00:14:39.787Z,0
2016-06-22T00:15:39.772Z,0
2016-06-22T00:16:39.784Z,0
2016-06-22T00:17:39.218Z,0
2016-06-22T00:18:39.878Z,0
2016-06-22T00:19:39.539Z,0
2016-06-22T00:20:39.283Z,0
2016-06-22T00:21:39.365Z,0
2016-06-22T00:22:39.920Z,0
2016-06-22T00:23:39.369Z,0
2016-06-22T00:24:40.593Z,0
2016-06-22T00:25:40.599Z,0
2016-06-22T00:26:40.025Z,0
2016-06-22T00:27:40.052Z,0
2016-06-22T00:28:40.057Z,0
2016-06-22T00:29:40.702Z,0
2016-06-22T00:30:40.117Z,0
2016-06-22T00:31:38.928Z,0
2016-06-22T00:32:40.155Z,0
2016-06-22T00:33:40.245Z,0
2016-06-22T00:34:38.997Z,0
2016-06-22T00:35:40.256Z,0
2016-06-22T00:36:39.648Z,0
2016-06-22T00:37:39.674Z,0
2016-06-22T00:38:39.717Z,0
2016-06-22T00:39:40.346Z,0
2016-06-22T00:40:39.765Z,0
2016-06-22T00:41:39.187Z,0
2016-06-22T00:42:41.036Z,0
2016-06-22T00:43:39.350Z,0
2016-06-22T00:44:39.821Z,0
2016-06-22T00:45:39.906Z,0
2016-06-22T00:46:39.871Z,0
2016-06-22T00:47:39.956Z,0
2016-06-22T00:48:41.125Z,0
2016-06-22T00:49:38.837Z,0
2016-06-22T00:50:40.596Z,0
2016-06-22T00:51:40.701Z,0
2016-06-22T00:52:40.630Z,0
2016-06-22T00:53:40.667Z,0
2016-06-22T00:54:40.066Z,0
2016-06-22T00:55:40.109Z,0
2016-06-22T00:56:40.201Z,0
2016-06-22T00:57:40.753Z,0
2016-06-22T00:58:40.838Z,0
2016-06-22T00:59:40.807Z,0
2016-06-22T01:00:39.657Z,0
2016-06-22T01:01:40.877Z,0
2016-06-22T01:02:41.587Z,0
2016-06-22T01:03:40.370Z,0
2016-06-22T01:04:40.289Z,0
2016-06-22T01:05:40.996Z,0
2016-06-22T01:06:41.018Z,0
2016-06-22T01:07:41.165Z,0
2016-06-22T01:08:41.684Z,0
2016-06-22T01:09:41.150Z,0
2016-06-22T01:10:41.666Z,0
2016-06-22T01:11:41.214Z,0
2016-06-22T01:12:41.105Z,0
2016-06-22T01:13:41.120Z,0
2016-06-22T01:14:41.745Z,0
2016-06-22T01:15:41.158Z,0
2016-06-22T01:16:40.741Z,0
2016-06-22T01:17:40.635Z,0
2016-06-22T01:18:40.712Z,0
2016-06-22T01:19:40.109Z,0
2016-06-22T01:20:41.386Z,0
2016-06-22T01:21:41.311Z,0
2016-06-22T01:22:40.727Z,0
2016-06-22T01:23:40.729Z,0
2016-06-22T01:24:41.466Z,0
2016-06-22T01:25:40.775Z,0
2016-06-22T01:26:40.207Z,0
2016-06-22T01:27:40.962Z,0
2016-06-22T01:28:40.856Z,0
2016-06-22T01:29:42.107Z,0
2016-06-22T01:30:41.527Z,0
2016-06-22T01:31:39.702Z,0
2016-06-22T01:32:40.968Z,0
2016-06-22T01:33:40.350Z,0
2016-06-22T01:34:41.606Z,0
2016-06-22T01:35:41.641Z,0
2016-06-22T01:36:42.290Z,0
2016-06-22T01:37:39.826Z,0
2016-06-22T01:38:42.325Z,0
2016-06-22T01:39:41.110Z,0
2016-06-22T01:40:41.137Z,0
2016-06-22T01:41:41.162Z,0
2016-06-22T01:42:40.644Z,0
2016-06-22T01:43:40.607Z,0
2016-06-22T01:44:42.561Z,0
2016-06-22T01:45:41.871Z,0
2016-06-22T01:46:41.365Z,0
2016-06-22T01:47:42.571Z,0
2016-06-22T01:48:40.713Z,0
2016-06-22T01:49:41.947Z,0
2016-06-22T01:50:41.386Z,0
2016-06-22T01:51:41.446Z,0
2016-06-22T01:52:40.783Z,0
2016-06-22T01:53:41.480Z,0
2016-06-22T01:54:40.958Z,0
2016-06-22T01:55:40.861Z,0
2016-06-22T01:56:42.765Z,0
2016-06-22T01:57:42.157Z,0
2016-06-22T01:58:40.936Z,0
2016-06-22T01:59:42.397Z,0
2016-06-22T02:00:42.861Z,0
2016-06-22T02:01:42.847Z,0
2016-06-22T02:02:41.635Z,0
2016-06-22T02:03:40.556Z,0
2016-06-22T02:04:42.894Z,0
2016-06-22T02:05:41.843Z,0
2016-06-22T02:06:41.123Z,0
2016-06-22T02:07:41.775Z,0
2016-06-22T02:08:42.394Z,0
2016-06-22T02:09:42.407Z,0
2016-06-22T02:10:41.855Z,0
2016-06-22T02:11:42.477Z,0
2016-06-22T02:12:43.131Z,0
2016-06-22T02:13:42.497Z,0
2016-06-22T02:14:43.243Z,0
2016-06-22T02:15:41.968Z,0
2016-06-22T02:16:42.608Z,0
2016-06-22T02:17:43.230Z,0
2016-06-22T02:18:42.645Z,0
2016-06-22T02:19:42.828Z,0
2016-06-22T02:20:42.715Z,0
2016-06-22T02:21:43.358Z,0
2016-06-22T02:22:42.121Z,0
2016-06-22T02:23:42.115Z,0
2016-06-22T02:24:41.019Z,0
2016-06-22T02:25:42.176Z,0
2016-06-22T02:26:42.856Z,0
2016-06-22T02:27:42.857Z,0
2016-06-22T02:28:41.100Z,0
2016-06-22T02:29:42.900Z,0
2016-06-22T02:30:43.598Z,0
2016-06-22T02:31:42.982Z,0
2016-06-22T02:32:42.995Z,0
2016-06-22T02:33:43.017Z,0
2016-06-22T02:34:42.476Z,0
2016-06-22T02:35:43.037Z,0
2016-06-22T02:36:43.058Z,0
2016-06-22T02:37:42.477Z,0
2016-06-22T02:38:42.479Z,0
2016-06-22T02:39:41.911Z,0
2016-06-22T02:40:43.215Z,0
2016-06-22T02:41:41.949Z,0
2016-06-22T02:42:42.581Z,0
2016-06-22T02:43:42.644Z,0
2016-06-22T02:44:43.241Z,0
2016-06-22T02:45:43.323Z,0
2016-06-22T02:46:43.288Z,0
2016-06-22T02:47:42.074Z,0
2016-06-22T02:48:43.310Z,0
2016-06-22T02:49:42.718Z,0
2016-06-22T02:50:42.813Z,0
2016-06-22T02:51:42.789Z,0
2016-06-22T02:52:42.928Z,0
2016-06-22T02:53:43.438Z,0
2016-06-22T02:54:42.857Z,0
2016-06-22T02:55:42.890Z,0
2016-06-22T02:56:42.926Z,0
2016-06-22T02:57:42.907Z,5
2016-06-22T02:58:42.934Z,5
2016-06-22T02:59:42.405Z,5
2016-06-22T03:00:43.772Z,5
2016-06-22T03:01:43.002Z,5
2016-06-22T03:02:43.799Z,5
2016-06-22T03:03:43.159Z,5
2016-06-22T03:04:43.810Z,5
2016-06-22T03:05:43.086Z,5
2016-06-22T03:06:42.590Z,10
2016-06-22T03:07:44.421Z,10
2016-06-22T03:08:42.577Z,10
2016-06-22T03:09:43.251Z,10
2016-06-22T03:10:43.214Z,10
2016-06-22T03:11:42.637Z,10
2016-06-22T03:12:43.903Z,10
2016-06-22T03:13:44.547Z,15
2016-06-22T03:14:44.095Z,15
2016-06-22T03:15:42.708Z,15
2016-06-22T03:16:44.605Z,15
2016-06-22T03:17:42.148Z,15
2016-06-22T03:18:42.850Z,15
2016-06-22T03:19:44.050Z,20
2016-06-22T03:20:44.071Z,20
2016-06-22T03:21:44.707Z,20
2016-06-22T03:22:42.888Z,20
2016-06-22T03:23:42.972Z,20
2016-06-22T03:24:44.740Z,25
2016-06-22T03:25:44.183Z,25
2016-06-22T03:26:43.576Z,25
2016-06-22T03:27:43.008Z,25
2016-06-22T03:28:44.425Z,25
2016-06-22T03:29:43.948Z,30
2016-06-22T03:30:44.940Z,30
2016-06-22T03:31:43.334Z,30
2016-06-22T03:32:45.078Z,30
2016-06-22T03:33:43.289Z,30
2016-06-22T03:34:43.960Z,35
2016-06-22T03:35:44.566Z,35
2016-06-22T03:36:44.536Z,35
2016-06-22T03:37:44.536Z,35
2016-06-22T03:38:44.637Z,35
2016-06-22T03:39:43.261Z,35
2016-06-22T03:40:44.626Z,40
2016-06-22T03:41:44.559Z,40
2016-06-22T03:42:44.657Z,40
2016-06-22T03:43:45.198Z,40
2016-06-22T03:44:43.382Z,40
2016-06-22T03:45:45.271Z,45
2016-06-22T03:46:43.427Z,45
2016-06-22T03:47:45.311Z,45
2016-06-22T03:48:44.130Z,45
2016-06-22T03:49:43.518Z,45
2016-06-22T03:50:44.118Z,45
2016-06-22T03:51:44.800Z,50
2016-06-22T03:52:44.171Z,50
2016-06-22T03:53:45.531Z,50
2016-06-22T03:54:44.858Z,55
2016-06-22T03:55:45.475Z,55
2016-06-22T03:56:44.867Z,55
2016-06-22T03:57:44.298Z,60
2016-06-22T03:58:44.308Z,60
2016-06-22T03:59:45.555Z,65
2016-06-22T04:00:43.768Z,65
2016-06-22T04:01:44.410Z,65
2016-06-22T04:02:45.722Z,65
2016-06-22T04:03:45.055Z,65
2016-06-22T04:04:45.290Z,65
2016-06-22T04:05:45.140Z,65
2016-06-22T04:06:45.239Z,65
2016-06-22T04:07:45.726Z,65
2016-06-22T04:08:45.154Z,60
2016-06-22T04:09:45.778Z,65
2016-06-22T04:10:44.603Z,65
2016-06-22T04:11:44.617Z,70
2016-06-22T04:12:44.677Z,70
2016-06-22T04:13:45.280Z,70
2016-06-22T04:14:44.687Z,70
2016-06-22T04:15:43.508Z,65
2016-06-22T04:16:44.270Z,70
2016-06-22T04:17:45.970Z,70
2016-06-22T04:18:46.043Z,70
2016-06-22T04:19:44.798Z,65
2016-06-22T04:20:45.484Z,65
2016-06-22T04:21:44.850Z,70
2016-06-22T04:22:44.877Z,70
2016-06-22T04:23:44.915Z,80
2016-06-22T04:24:45.523Z,85
2016-06-22T04:25:44.504Z,90
2016-06-22T04:26:45.000Z,95
2016-06-22T04:27:45.586Z,110
2016-06-22T04:28:45.679Z,110
2016-06-22T04:29:45.643Z,120
2016-06-22T04:30:45.066Z,125
2016-06-22T04:31:45.685Z,120
2016-06-22T04:32:45.105Z,120
2016-06-22T04:33:45.726Z,125
2016-06-22T04:34:45.790Z,125
2016-06-22T04:35:45.803Z,115
2016-06-22T04:36:45.795Z,110
2016-06-22T04:37:45.976Z,105
2016-06-22T04:38:45.252Z,100
2016-06-22T04:39:44.678Z,100
2016-06-22T04:40:45.333Z,95
2016-06-22T04:41:44.750Z,100
2016-06-22T04:42:45.347Z,115
2016-06-22T04:43:46.636Z,115
2016-06-22T04:44:46.631Z,110
2016-06-22T04:45:46.047Z,105
2016-06-22T04:46:45.464Z,105
2016-06-22T04:47:45.483Z,95
2016-06-22T04:48:45.530Z,80
2016-06-22T04:49:45.514Z,75
2016-06-22T04:50:44.922Z,70
2016-06-22T04:51:45.020Z,65
2016-06-22T04:52:44.970Z,60
2016-06-22T04:53:45.680Z,50
2016-06-22T04:54:45.650Z,50
2016-06-22T04:55:45.086Z,55
2016-06-22T04:56:46.323Z,65
2016-06-22T04:57:45.784Z,80
2016-06-22T04:58:45.759Z,90
2016-06-22T04:59:45.167Z,100
2016-06-22T05:00:47.386Z,125
2016-06-22T05:01:45.785Z,150
2016-06-22T05:02:45.882Z,170
2016-06-22T05:03:45.835Z,205
2016-06-22T05:04:46.028Z,230
2016-06-22T05:05:45.908Z,255
2016-06-22T05:06:47.321Z,275
2016-06-22T05:07:45.970Z,310
2016-06-22T05:08:46.040Z,340
2016-06-22T05:09:47.531Z,355
2016-06-22T05:10:46.060Z,335
2016-06-22T05:11:46.058Z,320
2016-06-22T05:12:46.112Z,300
2016-06-22T05:13:45.562Z,295
2016-06-22T05:14:47.338Z,295
2016-06-22T05:15:45.644Z,300
2016-06-22T05:16:45.548Z,305
2016-06-22T05:17:45.578Z,315
2016-06-22T05:18:46.882Z,330
2016-06-22T05:19:46.277Z,335
2016-06-22T05:20:46.896Z,330
2016-06-22T05:21:46.375Z,305
2016-06-22T05:22:46.326Z,290
2016-06-22T05:23:46.959Z,275
2016-06-22T05:24:46.381Z,245
2016-06-22T05:25:46.383Z,205
2016-06-22T05:26:47.657Z,190
2016-06-22T05:27:46.463Z,175
2016-06-22T05:28:47.077Z,165
2016-06-22T05:29:46.502Z,165
2016-06-22T05:30:47.847Z,160
2016-06-22T05:31:46.538Z,140
2016-06-22T05:32:46.582Z,115
2016-06-22T05:33:47.877Z,110
2016-06-22T05:34:48.003Z,95
2016-06-22T05:35:47.860Z,85
2016-06-22T05:36:46.659Z,75
2016-06-22T05:37:46.079Z,70
2016-06-22T05:38:46.730Z,75
2016-06-22T05:39:47.466Z,80
2016-06-22T05:40:47.540Z,80
2016-06-22T05:41:48.041Z,75
2016-06-22T05:42:46.354Z,70
2016-06-22T05:43:46.249Z,60
2016-06-22T05:44:47.487Z,55
2016-06-22T05:45:46.385Z,55
2016-06-22T05:46:47.517Z,55
2016-06-22T05:47:46.959Z,50
2016-06-22T05:48:46.960Z,50
2016-06-22T05:49:47.677Z,45
2016-06-22T05:50:47.720Z,40
2016-06-22T05:51:46.423Z,40
2016-06-22T05:52:48.300Z,35
2016-06-22T05:53:47.076Z,35
2016-06-22T05:54:47.731Z,40
2016-06-22T05:55:47.780Z,40
2016-06-22T05:56:47.865Z,45
2016-06-22T05:57:46.608Z,40
2016-06-22T05:58:47.834Z,40
2016-06-22T05:59:48.438Z,45
2016-06-22T06:00:47.909Z,40
2016-06-22T06:01:47.320Z,35
2016-06-22T06:02:46.701Z,35
2016-06-22T06:03:47.939Z,35
2016-06-22T06:04:47.986Z,30
2016-06-22T06:05:47.586Z,25
2016-06-22T06:06:48.005Z,20
2016-06-22T06:07:48.172Z,20
2016-06-22T06:08:48.067Z,20
2016-06-22T06:09:48.752Z,20
2016-06-22T06:10:47.515Z,30
2016-06-22T06:11:47.527Z,35
2016-06-22T06:12:48.765Z,45
2016-06-22T06:13:47.574Z,55
2016-06-22T06:14:48.302Z,70
2016-06-22T06:15:47.115Z,90
2016-06-22T06:16:48.271Z,100
2016-06-22T06:17:48.268Z,105
2016-06-22T06:18:48.430Z,130
2016-06-22T06:19:47.709Z,150
2016-06-22T06:20:47.177Z,185
2016-06-22T06:21:47.799Z,205
2016-06-22T06:22:48.501Z,215
2016-06-22T06:23:47.255Z,210
2016-06-22T06:24:48.462Z,215
2016-06-22T06:25:48.541Z,240
2016-06-22T06:26:48.604Z,285
2016-06-22T06:27:47.907Z,320
2016-06-22T06:28:47.942Z,355
2016-06-22T06:29:48.591Z,395
2016-06-22T06:30:47.397Z,440
2016-06-22T06:31:47.464Z,475
2016-06-22T06:32:47.410Z,460
2016-06-22T06:33:48.838Z,415
2016-06-22T06:34:49.311Z,400
2016-06-22T06:35:48.837Z,405
2016-06-22T06:36:48.724Z,420
2016-06-22T06:37:47.528Z,515
2016-06-22T06:38:48.222Z,630
2016-06-22T06:39:48.203Z,850
2016-06-22T06:40:48.269Z,1135
2016-06-22T06:41:48.866Z,1085
2016-06-22T06:42:48.278Z,855
2016-06-22T06:43:49.526Z,850
2016-06-22T06:44:48.363Z,915
2016-06-22T06:45:48.971Z,940
2016-06-22T06:46:48.396Z,1480
2016-06-22T06:47:47.909Z,1840
2016-06-22T06:48:49.635Z,995
2016-06-22T06:49:47.967Z,815
2016-06-22T06:50:48.473Z,645
2016-06-22T06:51:49.207Z,580
2016-06-22T06:52:49.155Z,535
2016-06-22T06:53:49.855Z,490
2016-06-22T06:54:49.834Z,455
2016-06-22T06:55:49.292Z,440
2016-06-22T06:56:49.911Z,440
2016-06-22T06:57:49.360Z,425
2016-06-22T06:58:48.837Z,440
2016-06-22T06:59:49.979Z,465
2016-06-22T07:00:49.387Z,505
2016-06-22T07:01:48.848Z,515
2016-06-22T07:02:50.111Z,465
2016-06-22T07:03:48.920Z,435
2016-06-22T07:04:48.909Z,425
2016-06-22T07:05:48.426Z,385
2016-06-22T07:06:49.577Z,345
2016-06-22T07:07:50.198Z,320
2016-06-22T07:08:49.629Z,330
2016-06-22T07:09:48.454Z,335
2016-06-22T07:10:48.459Z,360
2016-06-22T07:11:50.322Z,395
2016-06-22T07:12:49.765Z,420
2016-06-22T07:13:50.401Z,425
2016-06-22T07:14:48.678Z,440
2016-06-22T07:15:49.794Z,465
2016-06-22T07:16:50.451Z,465
2016-06-22T07:17:52.508Z,445
2016-06-22T07:18:49.402Z,435
2016-06-22T07:19:51.633Z,420
2016-06-22T07:20:50.179Z,425
2016-06-22T07:21:50.610Z,445
2016-06-22T07:22:49.472Z,445
2016-06-22T07:23:50.913Z,480
2016-06-22T07:24:49.812Z,515
2016-06-22T07:25:49.215Z,585
2016-06-22T07:26:50.230Z,515
2016-06-22T07:27:50.508Z,485
2016-06-22T07:28:49.370Z,485
2016-06-22T07:29:49.616Z,485
2016-06-22T07:30:49.746Z,445
2016-06-22T07:31:50.521Z,430
2016-06-22T07:32:49.852Z,465
2016-06-22T07:33:50.649Z,460
2016-06-22T07:34:50.178Z,500
2016-06-22T07:35:50.674Z,535
2016-06-22T07:36:49.880Z,580
2016-06-22T07:37:49.949Z,695
2016-06-22T07:38:51.441Z,1210
2016-06-22T07:39:49.635Z,925
2016-06-22T07:40:51.417Z,1140
2016-06-22T07:41:51.501Z,885
2016-06-22T07:42:49.978Z,915
2016-06-22T07:43:51.236Z,1080
2016-06-22T07:44:50.713Z,1305
2016-06-22T07:45:50.086Z,1005
2016-06-22T07:46:49.549Z,1670
2016-06-22T07:47:49.570Z,915
2016-06-22T07:48:50.152Z,2285
2016-06-22T07:49:50.995Z,2305
2016-06-22T07:50:50.403Z,795
2016-06-22T07:51:50.486Z,845
2016-06-22T07:52:51.127Z,1945
2016-06-22T07:53:51.561Z,2360
2016-06-22T07:54:50.972Z,2210
2016-06-22T07:55:50.440Z,2000
2016-06-22T07:56:50.499Z,1995
2016-06-22T07:57:49.830Z,2050
2016-06-22T07:58:50.510Z,2210
2016-06-22T07:59:49.875Z,1850
2016-06-22T08:00:51.135Z,790
2016-06-22T08:01:50.560Z,1225
2016-06-22T08:02:51.255Z,1015
2016-06-22T08:03:51.231Z,1175
2016-06-22T08:04:50.671Z,965
2016-06-22T08:05:50.199Z,730
2016-06-22T08:06:52.000Z,820
2016-06-22T08:07:50.294Z,835
2016-06-22T08:08:50.200Z,735
2016-06-22T08:09:51.606Z,690
2016-06-22T08:10:52.106Z,720
2016-06-22T08:11:51.612Z,705
2016-06-22T08:12:50.588Z,545
2016-06-22T08:13:50.539Z,500
2016-06-22T08:14:51.625Z,505
2016-06-22T08:15:51.085Z,540
2016-06-22T08:16:51.684Z,585
2016-06-22T08:17:51.729Z,665
2016-06-22T08:18:51.804Z,675
2016-06-22T08:19:51.811Z,670
2016-06-22T08:20:51.284Z,710
2016-06-22T08:21:51.365Z,745
2016-06-22T08:22:51.966Z,760
2016-06-22T08:23:51.360Z,740
2016-06-22T08:24:51.377Z,715
2016-06-22T08:25:52.663Z,800
2016-06-22T08:26:52.078Z,850
2016-06-22T08:27:52.671Z,930
2016-06-22T08:28:52.697Z,785
2016-06-22T08:29:50.312Z,750
2016-06-22T08:30:51.018Z,715
2016-06-22T08:31:50.997Z,790
2016-06-22T08:32:52.894Z,740
2016-06-22T08:33:51.656Z,615
2016-06-22T08:34:51.155Z,565
2016-06-22T08:35:52.938Z,495
2016-06-22T08:36:51.159Z,445
2016-06-22T08:37:52.394Z,370
2016-06-22T08:38:52.447Z,365
2016-06-22T08:39:51.916Z,415
2016-06-22T08:40:53.147Z,530
2016-06-22T08:41:53.109Z,770
2016-06-22T08:42:51.460Z,855
2016-06-22T08:43:51.969Z,845
2016-06-22T08:44:53.247Z,825
2016-06-22T08:45:52.671Z,675
2016-06-22T08:46:52.086Z,550
2016-06-22T08:47:52.838Z,485
2016-06-22T08:48:52.149Z,490
2016-06-22T08:49:52.827Z,500
2016-06-22T08:50:52.198Z,480
2016-06-22T08:51:52.816Z,465
2016-06-22T08:52:53.467Z,430
2016-06-22T08:53:53.490Z,420
2016-06-22T08:54:53.514Z,415
2016-06-22T08:55:52.959Z,465
2016-06-22T08:56:52.987Z,610
2016-06-22T08:57:52.410Z,700
2016-06-22T08:58:52.442Z,665
2016-06-22T08:59:52.490Z,655
2016-06-22T09:00:53.242Z,650
2016-06-22T09:01:52.542Z,695
2016-06-22T09:02:52.558Z,660
2016-06-22T09:03:53.186Z,715
2016-06-22T09:04:53.261Z,680
2016-06-22T09:05:53.438Z,595
2016-06-22T09:06:52.672Z,485
2016-06-22T09:07:53.367Z,410
2016-06-22T09:08:52.758Z,350
2016-06-22T09:09:52.806Z,310
2016-06-22T09:10:52.822Z,300
2016-06-22T09:11:54.054Z,305
2016-06-22T09:12:54.064Z,320
2016-06-22T09:13:54.157Z,385
2016-06-22T09:14:53.814Z,455
2016-06-22T09:15:52.349Z,500
2016-06-22T09:16:52.374Z,555
2016-06-22T09:17:53.018Z,565
2016-06-22T09:18:54.796Z,610
2016-06-22T09:19:53.064Z,605
2016-06-22T09:20:53.810Z,575
2016-06-22T09:21:53.774Z,570
2016-06-22T09:22:53.794Z,545
2016-06-22T09:23:53.165Z,530
2016-06-22T09:24:53.798Z,530
2016-06-22T09:25:53.287Z,555
2016-06-22T09:26:53.889Z,685
2016-06-22T09:27:53.329Z,780
2016-06-22T09:28:53.333Z,825
2016-06-22T09:29:52.133Z,720
2016-06-22T09:30:53.987Z,675
2016-06-22T09:31:54.067Z,740
2016-06-22T09:32:53.478Z,720
2016-06-22T09:33:53.795Z,695
2016-06-22T09:34:54.719Z,565
2016-06-22T09:35:52.926Z,425
2016-06-22T09:36:53.578Z,380
2016-06-22T09:37:53.612Z,455
2016-06-22T09:38:54.345Z,565
2016-06-22T09:39:53.905Z,675
2016-06-22T09:40:54.341Z,765
2016-06-22T09:41:54.953Z,755
2016-06-22T09:42:54.998Z,765
2016-06-22T09:43:55.023Z,800
2016-06-22T09:44:53.863Z,810
2016-06-22T09:45:55.064Z,805
2016-06-22T09:46:55.111Z,780
2016-06-22T09:47:53.917Z,750
2016-06-22T09:48:55.163Z,685
2016-06-22T09:49:54.683Z,615
2016-06-22T09:50:54.656Z,535
2016-06-22T09:51:54.034Z,480
2016-06-22T09:52:54.703Z,445
2016-06-22T09:53:54.808Z,415
2016-06-22T09:54:53.504Z,420
2016-06-22T09:55:54.820Z,470
2016-06-22T09:56:54.275Z,520
2016-06-22T09:57:54.825Z,585
2016-06-22T09:58:54.989Z,640
2016-06-22T09:59:54.253Z,695
2016-06-22T10:00:55.557Z,735
2016-06-22T10:01:54.357Z,745
2016-06-22T10:02:55.023Z,750
2016-06-22T10:03:53.863Z,755
2016-06-22T10:04:54.433Z,785
2016-06-22T10:05:54.617Z,790
2016-06-22T10:06:55.780Z,790
2016-06-22T10:07:54.546Z,775
2016-06-22T10:08:55.767Z,745
2016-06-22T10:09:55.246Z,740
2016-06-22T10:10:55.215Z,730
2016-06-22T10:11:55.877Z,680
2016-06-22T10:12:54.662Z,645
2016-06-22T10:14:54.177Z,630
2016-06-22T10:15:55.398Z,685
2016-06-22T10:16:55.400Z,725
2016-06-22T10:17:54.823Z,795
2016-06-22T10:18:55.513Z,855
2016-06-22T10:19:55.547Z,870
2016-06-22T10:20:55.564Z,900
2016-06-22T10:21:55.570Z,825
2016-06-22T10:22:54.358Z,820
2016-06-22T10:23:55.041Z,850
2016-06-22T10:24:54.446Z,805
2016-06-22T10:25:56.379Z,745
2016-06-22T10:26:55.706Z,710
2016-06-22T10:27:55.867Z,655
2016-06-22T10:28:55.150Z,600
2016-06-22T10:29:55.830Z,550
2016-06-22T10:30:54.642Z,550
2016-06-22T10:31:55.937Z,570
2016-06-22T10:32:54.695Z,665
2016-06-22T10:33:55.960Z,770
2016-06-22T10:34:56.004Z,795
2016-06-22T10:35:54.787Z,775
2016-06-22T10:36:56.033Z,745
2016-06-22T10:37:55.455Z,685
2016-06-22T10:38:55.506Z,655
2016-06-22T10:39:55.520Z,655
2016-06-22T10:40:56.163Z,690
2016-06-22T10:41:55.584Z,680
2016-06-22T10:42:55.650Z,640
2016-06-22T10:43:56.489Z,635
2016-06-22T10:44:56.521Z,645
2016-06-22T10:45:55.222Z,670
2016-06-22T10:46:56.554Z,685
2016-06-22T10:47:57.089Z,675
2016-06-22T10:48:55.813Z,545
2016-06-22T10:49:56.716Z,465
2016-06-22T10:50:57.074Z,420
2016-06-22T10:51:55.898Z,405
2016-06-22T10:52:56.632Z,445
2016-06-22T10:53:55.971Z,535
2016-06-22T10:54:55.407Z,580
2016-06-22T10:55:56.019Z,575
2016-06-22T10:56:56.692Z,560
2016-06-22T10:57:56.718Z,540
2016-06-22T10:58:57.429Z,480
2016-06-22T10:59:56.895Z,455
2016-06-22T11:00:56.191Z,445
2016-06-22T11:01:56.318Z,460
2016-06-22T11:02:56.802Z,490
2016-06-22T11:03:55.646Z,530
2016-06-22T11:04:57.601Z,535
2016-06-22T11:05:56.356Z,535
2016-06-22T11:06:57.214Z,530
2016-06-22T11:07:57.010Z,535
2016-06-22T11:08:55.979Z,515
2016-06-22T11:09:57.330Z,485
2016-06-22T11:10:57.303Z,490
2016-06-22T11:11:56.733Z,500
2016-06-22T11:12:57.909Z,495
2016-06-22T11:13:57.249Z,490
2016-06-22T11:14:57.838Z,505
2016-06-22T11:15:57.912Z,535
2016-06-22T11:16:57.398Z,565
2016-06-22T11:18:57.549Z,545
2016-06-22T11:19:57.411Z,580
2016-06-22T11:20:58.019Z,555
2016-06-22T11:21:57.921Z,510
2016-06-22T11:22:57.551Z,505
2016-06-22T11:23:56.885Z,530
2016-06-22T11:24:57.545Z,540
2016-06-22T11:25:57.246Z,590
2016-06-22T11:26:57.596Z,605
2016-06-22T11:27:57.767Z,605
2016-06-22T11:28:57.043Z,575
2016-06-22T11:29:57.729Z,570
2016-06-22T11:30:56.541Z,625
2016-06-22T11:31:57.746Z,635
2016-06-22T11:32:57.277Z,640
2016-06-22T11:33:57.818Z,655
2016-06-22T11:34:57.854Z,585
2016-06-22T11:35:57.263Z,545
2016-06-22T11:36:57.952Z,490
2016-06-22T11:37:57.935Z,490
2016-06-22T11:38:56.907Z,530
2016-06-22T11:39:57.987Z,595
2016-06-22T11:40:58.049Z,610
2016-06-22T11:41:58.089Z,605
2016-06-22T11:42:58.085Z,590
2016-06-22T11:43:58.234Z,625
2016-06-22T11:44:58.181Z,570
2016-06-22T11:45:56.967Z,555
2016-06-22T11:46:58.205Z,530
2016-06-22T11:47:58.925Z,530
2016-06-22T11:48:57.662Z,520
2016-06-22T11:49:58.629Z,485
2016-06-22T11:50:57.143Z,465
2016-06-22T11:51:58.395Z,450
2016-06-22T11:52:58.447Z,455
2016-06-22T11:53:57.815Z,435
2016-06-22T11:54:57.848Z,450
2016-06-22T11:55:57.895Z,470
2016-06-22T11:56:57.939Z,480
2016-06-22T11:57:58.030Z,490
2016-06-22T11:58:58.610Z,540
2016-06-22T11:59:58.109Z,575
2016-06-22T12:00:58.105Z,605
2016-06-22T12:01:58.197Z,675
2016-06-22T12:02:59.331Z,675
2016-06-22T12:03:59.351Z,630
2016-06-22T12:04:58.795Z,570
2016-06-22T12:05:58.865Z,540
2016-06-22T12:06:59.466Z,495
2016-06-22T12:07:58.956Z,495
2016-06-22T12:08:58.318Z,520
2016-06-22T12:09:59.081Z,525
2016-06-22T12:10:58.445Z,530
2016-06-22T12:11:59.023Z,495
2016-06-22T12:12:59.141Z,495
2016-06-22T12:13:59.067Z,475
2016-06-22T12:14:59.307Z,510
2016-06-22T12:15:57.981Z,520
2016-06-22T12:16:57.997Z,510
2016-06-22T12:17:59.216Z,515
2016-06-22T12:18:58.051Z,510
2016-06-22T12:19:59.281Z,555
2016-06-22T12:20:59.378Z,515
2016-06-22T12:21:59.322Z,525
2016-06-22T12:22:59.367Z,550
2016-06-22T12:23:59.409Z,550
2016-06-22T12:24:59.397Z,540
2016-06-22T12:26:00.054Z,515
2016-06-22T12:26:59.481Z,495
2016-06-22T12:28:00.127Z,520
2016-06-22T12:28:59.547Z,555
2016-06-22T12:29:59.591Z,525
2016-06-22T12:31:00.218Z,520
2016-06-22T12:31:58.438Z,550
2016-06-22T12:33:00.331Z,575
2016-06-22T12:33:59.083Z,590
2016-06-22T12:34:59.170Z,600
2016-06-22T12:35:59.746Z,575
2016-06-22T12:36:59.192Z,530
2016-06-22T12:38:00.419Z,465
2016-06-22T12:39:00.060Z,440
2016-06-22T12:39:59.985Z,420
2016-06-22T12:41:00.531Z,405
2016-06-22T12:42:00.037Z,410
2016-06-22T12:42:59.434Z,410
2016-06-22T12:43:59.518Z,415
2016-06-22T12:45:00.043Z,425
2016-06-22T12:46:00.720Z,460
2016-06-22T12:47:00.099Z,485
2016-06-22T12:48:00.212Z,490
2016-06-22T12:48:59.550Z,535
2016-06-22T12:50:00.261Z,570
2016-06-22T12:51:00.246Z,545
2016-06-22T12:52:00.887Z,525
2016-06-22T12:53:00.343Z,510
2016-06-22T12:54:00.322Z,490
2016-06-22T12:54:59.797Z,475
2016-06-22T12:56:00.416Z,460
2016-06-22T12:56:59.854Z,455
2016-06-22T12:58:00.470Z,410
2016-06-22T12:59:01.155Z,385
2016-06-22T13:00:00.099Z,375
2016-06-22T13:01:01.153Z,390
2016-06-22T13:02:00.662Z,435
2016-06-22T13:03:00.034Z,485
2016-06-22T13:04:01.235Z,515
2016-06-22T13:05:00.653Z,500
2016-06-22T13:06:00.683Z,465
2016-06-22T13:07:00.713Z,415
2016-06-22T13:08:01.362Z,400
2016-06-22T13:09:00.805Z,395
2016-06-22T13:09:59.626Z,385
2016-06-22T13:10:59.733Z,390
2016-06-22T13:11:59.655Z,400
2016-06-22T13:13:01.543Z,380
2016-06-22T13:14:00.967Z,385
2016-06-22T13:15:01.631Z,425
2016-06-22T13:16:01.091Z,475
2016-06-22T13:17:01.692Z,505
2016-06-22T13:18:01.091Z,495
2016-06-22T13:19:01.702Z,485
2016-06-22T13:20:01.183Z,490
2016-06-22T13:21:01.145Z,460
2016-06-22T13:22:00.807Z,440
2016-06-22T13:23:01.223Z,435
2016-06-22T13:24:00.674Z,445
2016-06-22T13:25:01.281Z,435
2016-06-22T13:26:01.296Z,430
2016-06-22T13:27:01.413Z,415
2016-06-22T13:28:01.387Z,395
2016-06-22T13:29:01.400Z,375
2016-06-22T18:23:14.615Z,130
2016-06-22T18:24:14.486Z,130
2016-06-22T18:25:13.261Z,130
2016-06-22T18:26:14.507Z,130
2016-06-22T18:27:13.319Z,130
2016-06-22T18:28:14.597Z,130
2016-06-22T18:29:13.345Z,130
2016-06-22T18:30:14.606Z,125
2016-06-22T18:31:13.257Z,125
2016-06-22T18:32:14.702Z,125
2016-06-22T18:33:13.498Z,125
2016-06-22T18:34:14.157Z,120
2016-06-22T18:35:12.977Z,120
2016-06-22T18:36:14.182Z,120
2016-06-22T18:37:14.194Z,115
2016-06-22T18:38:14.841Z,115
2016-06-22T18:39:14.874Z,115
2016-06-22T18:40:14.900Z,115
2016-06-22T18:41:14.914Z,110
2016-06-22T18:42:13.179Z,110
2016-06-22T18:43:15.090Z,110
2016-06-22T18:44:14.350Z,110
2016-06-22T18:45:14.478Z,105
2016-06-22T18:46:15.055Z,105
2016-06-22T18:47:13.835Z,105
2016-06-22T18:48:13.891Z,105
2016-06-22T18:49:14.527Z,100
2016-06-22T18:50:13.958Z,100
2016-06-22T18:51:14.585Z,100
2016-06-22T18:52:13.375Z,100
2016-06-22T18:53:15.218Z,100
2016-06-22T18:54:14.684Z,95
2016-06-22T18:55:13.538Z,95
2016-06-22T18:56:14.144Z,95
2016-06-22T18:57:15.448Z,95
2016-06-22T18:58:15.391Z,90